sensor_id;sensor_type;location;lat;lon;timestamp;temperature;humidity
53675;DHT22;39574;50.534;8.500;2023-02-27T00:00:40;1.3;99.9
53675;DHT22;39574;50.534;8.500;2023-02-27T00:05:53;1.2;99.9
53675;DHT22;39574;50.534;8.500;2023-02-27T00:15:18;1.1;99.9
53675;DHT22;39574;50.534;8.500;2023-02-27T00:20:18;1.0;99.9
53675;DHT22;39574;50.534;8.500;2023-02-27T00:25:27;1.0;99.9
53675;DHT22;39574;50.534;8.500;2023-02-27T00:35:10;1.2;99.9
53675;DHT22;39574;50.534;8.500;2023-02-27T00:45:11;1.3;99.9
53675;DHT22;39574;50.534;8.500;2023-02-27T00:50:20;1.4;99.9
53675;DHT22;39574;50.534;8.500;2023-02-27T00:55:34;1.4;99.9
53675;DHT22;39574;50.534;8.500;2023-02-27T01:04:58;1.4;99.9
53675;DHT22;39574;50.534;8.500;2023-02-27T01:10:03;1.3;99.9
53675;DHT22;39574;50.534;8.500;2023-02-27T01:15:04;1.1;99.9
53675;DHT22;39574;50.534;8.500;2023-02-27T01:20:11;0.6;99.9
53675;DHT22;39574;50.534;8.500;2023-02-27T01:25:11;0.5;99.9
53675;DHT22;39574;50.534;8.500;2023-02-27T01:30:25;0.6;99.9
53675;DHT22;39574;50.534;8.500;2023-02-27T01:39:55;0.7;99.9
53675;DHT22;39574;50.534;8.500;2023-02-27T01:45:09;0.9;99.9
53675;DHT22;39574;50.534;8.500;2023-02-27T01:50:04;0.9;99.9
53675;DHT22;39574;50.534;8.500;2023-02-27T01:55:05;0.9;99.9
53675;DHT22;39574;50.534;8.500;2023-02-27T02:00:05;0.9;99.9
53675;DHT22;39574;50.534;8.500;2023-02-27T02:05:16;0.9;99.9
53675;DHT22;39574;50.534;8.500;2023-02-27T02:14:30;0.9;99.9
53675;DHT22;39574;50.534;8.500;2023-02-27T02:20:08;0.9;99.9
53675;DHT22;39574;50.534;8.500;2023-02-27T02:25:04;0.8;99.9
53675;DHT22;39574;50.534;8.500;2023-02-27T02:30:33;0.8;99.9
53675;DHT22;39574;50.534;8.500;2023-02-27T02:39:39;0.7;99.9
53675;DHT22;39574;50.534;8.500;2023-02-27T02:54:46;0.7;99.9
53675;DHT22;39574;50.534;8.500;2023-02-27T02:59:58;0.7;99.9
53675;DHT22;39574;50.534;8.500;2023-02-27T03:09:35;0.8;99.9
53675;DHT22;39574;50.534;8.500;2023-02-27T03:14:36;0.9;99.9
53675;DHT22;39574;50.534;8.500;2023-02-27T03:19:40;0.8;99.9
53675;DHT22;39574;50.534;8.500;2023-02-27T03:24:49;0.8;99.9
53675;DHT22;39574;50.534;8.500;2023-02-27T03:29:52;0.8;99.9
53675;DHT22;39574;50.534;8.500;2023-02-27T03:39:01;0.6;99.9
53675;DHT22;39574;50.534;8.500;2023-02-27T03:44:17;0.5;99.9
53675;DHT22;39574;50.534;8.500;2023-02-27T03:49:29;0.4;99.9
53675;DHT22;39574;50.534;8.500;2023-02-27T03:54:30;0.2;99.9
53675;DHT22;39574;50.534;8.500;2023-02-27T03:59:38;0.2;99.9
53675;DHT22;39574;50.534;8.500;2023-02-27T04:04:40;0.2;99.9
53675;DHT22;39574;50.534;8.500;2023-02-27T04:09:47;0.0;99.9
53675;DHT22;39574;50.534;8.500;2023-02-27T04:19:13;-0.0;99.9
53675;DHT22;39574;50.534;8.500;2023-02-27T04:24:25;-0.0;99.9
53675;DHT22;39574;50.534;8.500;2023-02-27T04:29:35;0.0;99.9
53675;DHT22;39574;50.534;8.500;2023-02-27T04:39:16;0.1;99.9
53675;DHT22;39574;50.534;8.500;2023-02-27T04:44:16;0.1;99.9
53675;DHT22;39574;50.534;8.500;2023-02-27T04:49:28;0.2;99.9
53675;DHT22;39574;50.534;8.500;2023-02-27T04:59:01;0.3;99.9
53675;DHT22;39574;50.534;8.500;2023-02-27T05:04:03;0.4;99.9
53675;DHT22;39574;50.534;8.500;2023-02-27T05:09:10;0.4;99.9
53675;DHT22;39574;50.534;8.500;2023-02-27T05:14:26;0.4;99.9
53675;DHT22;39574;50.534;8.500;2023-02-27T05:24:13;0.4;99.9
53675;DHT22;39574;50.534;8.500;2023-02-27T05:29:22;0.4;99.9
53675;DHT22;39574;50.534;8.500;2023-02-27T05:38:47;0.5;99.9
53675;DHT22;39574;50.534;8.500;2023-02-27T05:43:48;0.4;99.9
53675;DHT22;39574;50.534;8.500;2023-02-27T05:48:56;0.5;99.9
53675;DHT22;39574;50.534;8.500;2023-02-27T05:54:09;0.4;99.9
53675;DHT22;39574;50.534;8.500;2023-02-27T06:03:45;0.3;99.9
53675;DHT22;39574;50.534;8.500;2023-02-27T06:08:48;0.3;99.9
53675;DHT22;39574;50.534;8.500;2023-02-27T06:13:50;0.3;99.9
53675;DHT22;39574;50.534;8.500;2023-02-27T06:19:00;0.3;99.9
53675;DHT22;39574;50.534;8.500;2023-02-27T06:28:22;0.3;99.9
53675;DHT22;39574;50.534;8.500;2023-02-27T06:38:15;0.2;99.9
53675;DHT22;39574;50.534;8.500;2023-02-27T06:43:33;0.3;99.9
53675;DHT22;39574;50.534;8.500;2023-02-27T06:48:36;0.3;99.9
53675;DHT22;39574;50.534;8.500;2023-02-27T06:53:48;0.4;99.9
53675;DHT22;39574;50.534;8.500;2023-02-27T07:03:12;0.5;99.9
53675;DHT22;39574;50.534;8.500;2023-02-27T07:08:27;0.5;99.9
53675;DHT22;39574;50.534;8.500;2023-02-27T07:13:29;0.5;99.9
53675;DHT22;39574;50.534;8.500;2023-02-27T07:18:43;0.4;99.9
53675;DHT22;39574;50.534;8.500;2023-02-27T07:28:32;0.3;99.9
53675;DHT22;39574;50.534;8.500;2023-02-27T07:33:36;0.2;99.9
53675;DHT22;39574;50.534;8.500;2023-02-27T07:38:40;0.3;99.9
53675;DHT22;39574;50.534;8.500;2023-02-27T07:48:18;0.2;99.9
53675;DHT22;39574;50.534;8.500;2023-02-27T07:53:30;0.4;99.9
53675;DHT22;39574;50.534;8.500;2023-02-27T08:03:11;0.6;99.9
53675;DHT22;39574;50.534;8.500;2023-02-27T08:08:15;0.9;99.9
53675;DHT22;39574;50.534;8.500;2023-02-27T08:13:23;1.1;99.9
53675;DHT22;39574;50.534;8.500;2023-02-27T08:22:53;1.3;99.9
53675;DHT22;39574;50.534;8.500;2023-02-27T08:28:05;1.5;99.9
53675;DHT22;39574;50.534;8.500;2023-02-27T08:33:19;1.7;99.9
53675;DHT22;39574;50.534;8.500;2023-02-27T08:42:29;1.9;99.9
53675;DHT22;39574;50.534;8.500;2023-02-27T08:47:44;2.1;99.9
53675;DHT22;39574;50.534;8.500;2023-02-27T08:52:45;2.2;99.9
53675;DHT22;39574;50.534;8.500;2023-02-27T09:02:40;2.2;99.9
53675;DHT22;39574;50.534;8.500;2023-02-27T09:07:41;2.2;99.9
53675;DHT22;39574;50.534;8.500;2023-02-27T09:12:56;2.1;99.9
53675;DHT22;39574;50.534;8.500;2023-02-27T09:18:08;1.9;99.9
53675;DHT22;39574;50.534;8.500;2023-02-27T09:23:09;1.7;99.9
53675;DHT22;39574;50.534;8.500;2023-02-27T09:38:09;1.7;99.9
53675;DHT22;39574;50.534;8.500;2023-02-27T09:47:30;1.6;99.9
53675;DHT22;39574;50.534;8.500;2023-02-27T09:52:41;1.7;99.9
53675;DHT22;39574;50.534;8.500;2023-02-27T09:57:57;2.1;99.9
53675;DHT22;39574;50.534;8.500;2023-02-27T10:07:23;3.0;99.9
53675;DHT22;39574;50.534;8.500;2023-02-27T10:12:40;3.6;99.9
53675;DHT22;39574;50.534;8.500;2023-02-27T10:17:51;4.2;99.9
53675;DHT22;39574;50.534;8.500;2023-02-27T10:27:21;4.7;99.9
53675;DHT22;39574;50.534;8.500;2023-02-27T10:32:55;5.0;99.9
53675;DHT22;39574;50.534;8.500;2023-02-27T10:42:17;5.0;99.9
53675;DHT22;39574;50.534;8.500;2023-02-27T10:47:25;5.3;99.9
53675;DHT22;39574;50.534;8.500;2023-02-27T10:52:29;5.6;99.9
53675;DHT22;39574;50.534;8.500;2023-02-27T10:57:40;5.6;99.9
53675;DHT22;39574;50.534;8.500;2023-02-27T11:07:45;5.8;99.9
53675;DHT22;39574;50.534;8.500;2023-02-27T11:17:25;5.9;99.9
53675;DHT22;39574;50.534;8.500;2023-02-27T11:22:20;6.2;99.9
53675;DHT22;39574;50.534;8.500;2023-02-27T11:27:32;6.5;99.9
53675;DHT22;39574;50.534;8.500;2023-02-27T11:36:43;6.7;99.9
53675;DHT22;39574;50.534;8.500;2023-02-27T11:42:07;6.7;99.9
53675;DHT22;39574;50.534;8.500;2023-02-27T11:47:15;7.0;99.9
53675;DHT22;39574;50.534;8.500;2023-02-27T11:52:24;7.4;99.9
53675;DHT22;39574;50.534;8.500;2023-02-27T11:57:29;7.4;99.2
53675;DHT22;39574;50.534;8.500;2023-02-27T12:07:10;7.8;98.1
53675;DHT22;39574;50.534;8.500;2023-02-27T12:12:24;8.2;97.4
53675;DHT22;39574;50.534;8.500;2023-02-27T12:21:42;8.0;95.7
53675;DHT22;39574;50.534;8.500;2023-02-27T12:26:51;7.9;94.4
53675;DHT22;39574;50.534;8.500;2023-02-27T12:31:59;7.9;93.1
53675;DHT22;39574;50.534;8.500;2023-02-27T12:37:01;7.8;91.8
53675;DHT22;39574;50.534;8.500;2023-02-27T12:42:09;8.0;90.6
53675;DHT22;39574;50.534;8.500;2023-02-27T12:47:19;7.8;89.0
53675;DHT22;39574;50.534;8.500;2023-02-27T12:56:38;7.5;89.3
53675;DHT22;39574;50.534;8.500;2023-02-27T13:01:53;7.8;90.8
53675;DHT22;39574;50.534;8.500;2023-02-27T13:06:56;8.5;91.5
53675;DHT22;39574;50.534;8.500;2023-02-27T13:12:09;9.2;88.0
53675;DHT22;39574;50.534;8.500;2023-02-27T13:17:11;9.7;82.3
53675;DHT22;39574;50.534;8.500;2023-02-27T13:26:48;8.5;77.7
53675;DHT22;39574;50.534;8.500;2023-02-27T13:31:52;7.5;81.6
53675;DHT22;39574;50.534;8.500;2023-02-27T13:37:05;6.7;87.9
53675;DHT22;39574;50.534;8.500;2023-02-27T13:46:20;6.5;94.3
53675;DHT22;39574;50.534;8.500;2023-02-27T13:51:40;7.0;98.2
53675;DHT22;39574;50.534;8.500;2023-02-27T13:56:46;7.5;98.9
53675;DHT22;39574;50.534;8.500;2023-02-27T14:01:59;7.6;97.2
53675;DHT22;39574;50.534;8.500;2023-02-27T14:11:33;7.1;95.9
53675;DHT22;39574;50.534;8.500;2023-02-27T14:16:58;6.4;96.2
53675;DHT22;39574;50.534;8.500;2023-02-27T14:21:55;5.9;97.5
53675;DHT22;39574;50.534;8.500;2023-02-27T14:31:32;5.6;98.8
53675;DHT22;39574;50.534;8.500;2023-02-27T14:36:39;5.4;99.6
53675;DHT22;39574;50.534;8.500;2023-02-27T14:41:51;5.3;99.9
53675;DHT22;39574;50.534;8.500;2023-02-27T14:51:28;5.1;99.9
53675;DHT22;39574;50.534;8.500;2023-02-27T14:56:32;5.0;99.9
53675;DHT22;39574;50.534;8.500;2023-02-27T15:01:42;4.8;99.9
53675;DHT22;39574;50.534;8.500;2023-02-27T15:11:01;4.8;99.9
53675;DHT22;39574;50.534;8.500;2023-02-27T15:16:40;4.8;99.9
53675;DHT22;39574;50.534;8.500;2023-02-27T15:21:24;4.9;99.9
53675;DHT22;39574;50.534;8.500;2023-02-27T15:26:33;4.8;99.9
53675;DHT22;39574;50.534;8.500;2023-02-27T15:31:35;4.8;99.9
53675;DHT22;39574;50.534;8.500;2023-02-27T15:41:02;4.6;99.9
53675;DHT22;39574;50.534;8.500;2023-02-27T15:46:16;4.5;99.9
53675;DHT22;39574;50.534;8.500;2023-02-27T15:51:30;4.4;99.9
53675;DHT22;39574;50.534;8.500;2023-02-27T16:00:56;4.4;99.9
53675;DHT22;39574;50.534;8.500;2023-02-27T16:05:59;4.4;99.9
53675;DHT22;39574;50.534;8.500;2023-02-27T16:11:16;4.4;99.9
53675;DHT22;39574;50.534;8.500;2023-02-27T16:16:22;4.3;99.9
53675;DHT22;39574;50.534;8.500;2023-02-27T16:21:25;4.3;99.9
53675;DHT22;39574;50.534;8.500;2023-02-27T16:31:01;4.2;99.9
53675;DHT22;39574;50.534;8.500;2023-02-27T16:36:09;4.1;99.9
53675;DHT22;39574;50.534;8.500;2023-02-27T16:41:04;4.0;99.9
53675;DHT22;39574;50.534;8.500;2023-02-27T16:46:16;4.0;99.9
53675;DHT22;39574;50.534;8.500;2023-02-27T16:55:21;4.0;99.9
53675;DHT22;39574;50.534;8.500;2023-02-27T17:00:39;4.0;99.9
53675;DHT22;39574;50.534;8.500;2023-02-27T17:05:51;4.0;99.9
53675;DHT22;39574;50.534;8.500;2023-02-27T17:11:05;4.0;99.9
53675;DHT22;39574;50.534;8.500;2023-02-27T17:16:07;4.0;99.9
53675;DHT22;39574;50.534;8.500;2023-02-27T17:21:07;3.9;99.9
53675;DHT22;39574;50.534;8.500;2023-02-27T17:30:34;4.0;99.9
53675;DHT22;39574;50.534;8.500;2023-02-27T17:35:34;4.0;99.9
53675;DHT22;39574;50.534;8.500;2023-02-27T17:40:45;4.0;99.9
53675;DHT22;39574;50.534;8.500;2023-02-27T17:45:58;4.0;99.9
53675;DHT22;39574;50.534;8.500;2023-02-27T17:55:17;4.0;99.9
53675;DHT22;39574;50.534;8.500;2023-02-27T18:01:02;4.0;99.9
53675;DHT22;39574;50.534;8.500;2023-02-27T18:10:25;4.1;99.9
53675;DHT22;39574;50.534;8.500;2023-02-27T18:15:33;4.1;99.9
53675;DHT22;39574;50.534;8.500;2023-02-27T18:20:33;4.1;99.9
53675;DHT22;39574;50.534;8.500;2023-02-27T18:25:51;4.1;99.9
53675;DHT22;39574;50.534;8.500;2023-02-27T18:30:48;4.1;99.9
53675;DHT22;39574;50.534;8.500;2023-02-27T18:40:15;4.0;99.9
53675;DHT22;39574;50.534;8.500;2023-02-27T18:45:27;3.9;99.9
53675;DHT22;39574;50.534;8.500;2023-02-27T18:50:29;3.9;99.9
53675;DHT22;39574;50.534;8.500;2023-02-27T18:55:40;3.9;99.9
53675;DHT22;39574;50.534;8.500;2023-02-27T19:00:40;3.9;99.9
53675;DHT22;39574;50.534;8.500;2023-02-27T19:05:40;3.9;99.9
53675;DHT22;39574;50.534;8.500;2023-02-27T19:15:07;3.9;99.9
53675;DHT22;39574;50.534;8.500;2023-02-27T19:20:19;3.8;99.9
53675;DHT22;39574;50.534;8.500;2023-02-27T19:25:31;3.9;99.9
53675;DHT22;39574;50.534;8.500;2023-02-27T19:35:15;3.8;99.9
53675;DHT22;39574;50.534;8.500;2023-02-27T19:40:30;3.7;99.9
53675;DHT22;39574;50.534;8.500;2023-02-27T19:50:08;3.6;99.9
53675;DHT22;39574;50.534;8.500;2023-02-27T19:55:13;3.6;99.9
53675;DHT22;39574;50.534;8.500;2023-02-27T20:00:26;3.7;99.9
53675;DHT22;39574;50.534;8.500;2023-02-27T20:09:51;3.6;99.9
53675;DHT22;39574;50.534;8.500;2023-02-27T20:15:03;3.5;99.9
53675;DHT22;39574;50.534;8.500;2023-02-27T20:20:04;3.3;99.9
53675;DHT22;39574;50.534;8.500;2023-02-27T20:25:18;3.3;99.9
53675;DHT22;39574;50.534;8.500;2023-02-27T20:34:44;3.2;99.9
53675;DHT22;39574;50.534;8.500;2023-02-27T20:39:47;3.1;99.9
53675;DHT22;39574;50.534;8.500;2023-02-27T20:44:53;3.0;99.9
53675;DHT22;39574;50.534;8.500;2023-02-27T20:49:59;3.0;99.9
53675;DHT22;39574;50.534;8.500;2023-02-27T20:55:08;3.1;99.9
53675;DHT22;39574;50.534;8.500;2023-02-27T21:04:37;3.1;99.9
53675;DHT22;39574;50.534;8.500;2023-02-27T21:15:06;3.0;99.9
53675;DHT22;39574;50.534;8.500;2023-02-27T21:24:31;2.9;99.9
53675;DHT22;39574;50.534;8.500;2023-02-27T21:29:45;2.8;99.9
53675;DHT22;39574;50.534;8.500;2023-02-27T21:34:55;2.7;99.9
53675;DHT22;39574;50.534;8.500;2023-02-27T21:44:04;2.8;99.9
53675;DHT22;39574;50.534;8.500;2023-02-27T21:49:35;2.9;99.9
53675;DHT22;39574;50.534;8.500;2023-02-27T21:54:36;2.9;99.9
53675;DHT22;39574;50.534;8.500;2023-02-27T21:59:36;2.8;99.9
53675;DHT22;39574;50.534;8.500;2023-02-27T22:04:50;2.7;99.9
53675;DHT22;39574;50.534;8.500;2023-02-27T22:09:51;2.6;99.9
53675;DHT22;39574;50.534;8.500;2023-02-27T22:19:09;2.6;99.9
53675;DHT22;39574;50.534;8.500;2023-02-27T22:24:25;2.6;99.9
53675;DHT22;39574;50.534;8.500;2023-02-27T22:29:26;2.5;99.9
53675;DHT22;39574;50.534;8.500;2023-02-27T22:34:28;2.5;99.9
53675;DHT22;39574;50.534;8.500;2023-02-27T22:39:41;2.3;99.9
53675;DHT22;39574;50.534;8.500;2023-02-27T22:49:19;2.3;99.9
53675;DHT22;39574;50.534;8.500;2023-02-27T22:58:55;2.4;99.9
53675;DHT22;39574;50.534;8.500;2023-02-27T23:04:03;2.4;99.9
53675;DHT22;39574;50.534;8.500;2023-02-27T23:09:14;2.4;99.9
53675;DHT22;39574;50.534;8.500;2023-02-27T23:14:15;2.3;99.9
53675;DHT22;39574;50.534;8.500;2023-02-27T23:19:29;2.1;99.9
53675;DHT22;39574;50.534;8.500;2023-02-27T23:29:10;2.0;99.9
53675;DHT22;39574;50.534;8.500;2023-02-27T23:34:24;1.9;99.9
53675;DHT22;39574;50.534;8.500;2023-02-27T23:43:44;2.0;99.9
53675;DHT22;39574;50.534;8.500;2023-02-27T23:48:48;2.1;99.9
53675;DHT22;39574;50.534;8.500;2023-02-27T23:54:01;2.3;99.9
53675;DHT22;39574;50.534;8.500;2023-02-27T23:59:05;2.3;99.9
